Time;durP1;ratioP1;P1;durP2;ratioP2;P2;SDS_P1;SDS_P2;PMS_P1;PMS_P2;Temp;Humidity;BMP_temperature;BMP_pressure;BME280_temperature;BME280_humidity;BME280_pressure;Samples;Min_cycle;Max_cycle;Signal;HPM_P1;HPM_P2
2022/02/20 00:01:20;;;;;;;4.00;1.25;;;;;;;;;;5073917;28;20024;-76
2022/02/20 00:03:46;;;;;;;2.40;0.90;;;;;;;;;;5055149;28;20025;-76
2022/02/20 00:06:11;;;;;;;3.65;1.13;;;;;;;;;;5070049;28;20039;-77
2022/02/20 00:08:39;;;;;;;5.15;0.80;;;;;;;;;;5054515;28;20028;-78
2022/02/20 00:11:07;;;;;;;9.82;1.10;;;;;;;;;;5071631;28;20358;-76
2022/02/20 00:13:33;;;;;;;5.63;1.17;;;;;;;;;;5048014;28;20482;-77
2022/02/20 00:15:58;;;;;;;7.00;1.30;;;;;;;;;;5066500;28;20032;-78
2022/02/20 00:18:24;;;;;;;4.38;1.00;;;;;;;;;;5071006;28;20012;-77
2022/02/20 00:20:50;;;;;;;6.15;0.90;;;;;;;;;;5049692;28;20025;-78
2022/02/20 00:23:16;;;;;;;5.10;1.80;;;;;;;;;;5074786;28;20476;-77
2022/02/20 00:25:42;;;;;;;4.70;0.98;;;;;;;;;;5077814;28;20567;-78
2022/02/20 00:28:10;;;;;;;4.05;0.90;;;;;;;;;;5071049;28;20052;-78
2022/02/20 00:30:35;;;;;;;10.82;1.98;;;;;;;;;;5059688;28;20036;-79
2022/02/20 00:33:01;;;;;;;5.13;1.00;;;;;;;;;;5072041;28;20017;-78
2022/02/20 00:35:33;;;;;;;3.80;1.00;;;;;;;;;;5071740;28;20021;-76
2022/02/20 00:37:58;;;;;;;7.05;1.23;;;;;;;;;;5075365;28;20032;-78
2022/02/20 00:40:24;;;;;;;4.85;0.95;;;;;;;;;;5056116;28;20461;-77
2022/02/20 00:42:51;;;;;;;6.30;0.70;;;;;;;;;;5056108;28;20024;-77
2022/02/20 00:45:16;;;;;;;3.13;0.80;;;;;;;;;;5067418;28;20162;-80
2022/02/20 00:47:42;;;;;;;7.07;1.13;;;;;;;;;;5071936;28;20452;-78
2022/02/20 00:50:11;;;;;;;4.70;0.93;;;;;;;;;;5071819;28;20032;-77
2022/02/20 00:52:36;;;;;;;4.38;0.80;;;;;;;;;;5073904;28;20033;-78
2022/02/20 00:55:03;;;;;;;4.07;1.00;;;;;;;;;;5057627;28;20043;-77
2022/02/20 00:57:28;;;;;;;6.10;1.35;;;;;;;;;;5071589;28;20218;-77
2022/02/20 00:59:54;;;;;;;5.63;1.00;;;;;;;;;;5072977;28;20088;-78
2022/02/20 01:02:20;;;;;;;3.05;0.93;;;;;;;;;;5071011;28;20063;-78
2022/02/20 01:04:48;;;;;;;9.20;1.13;;;;;;;;;;5075018;28;20043;-77
2022/02/20 01:07:14;;;;;;;6.45;1.00;;;;;;;;;;5065215;28;20025;-77
2022/02/20 01:09:42;;;;;;;8.27;1.10;;;;;;;;;;5070827;28;20021;-77
2022/02/20 01:12:07;;;;;;;3.25;0.85;;;;;;;;;;5056541;28;20557;-77
2022/02/20 01:14:33;;;;;;;2.42;0.98;;;;;;;;;;5055737;28;20035;-79
2022/02/20 01:16:58;;;;;;;4.43;1.00;;;;;;;;;;5075573;28;20028;-76
2022/02/20 01:19:26;;;;;;;3.80;1.05;;;;;;;;;;5056229;28;20523;-79
2022/02/20 01:21:54;;;;;;;5.28;1.10;;;;;;;;;;5071983;28;20021;-79
2022/02/20 01:24:19;;;;;;;2.58;0.70;;;;;;;;;;5071882;28;20016;-80
2022/02/20 01:26:47;;;;;;;3.33;0.82;;;;;;;;;;5075172;28;20048;-77
2022/02/20 01:29:13;;;;;;;6.63;1.30;;;;;;;;;;5058715;28;20059;-77
2022/02/20 01:31:40;;;;;;;3.42;1.45;;;;;;;;;;5072907;28;20047;-77
2022/02/20 01:34:06;;;;;;;3.33;0.90;;;;;;;;;;5073267;28;20059;-77
2022/02/20 01:36:31;;;;;;;3.83;0.95;;;;;;;;;;5073676;28;20048;-79
2022/02/20 01:38:57;;;;;;;4.75;1.35;;;;;;;;;;5054495;28;20056;-79
2022/02/20 01:41:25;;;;;;;5.72;1.10;;;;;;;;;;5057852;28;20025;-81
2022/02/20 01:43:52;;;;;;;5.03;0.98;;;;;;;;;;5054871;28;20052;-80
2022/02/20 01:46:18;;;;;;;2.53;0.65;;;;;;;;;;5074025;28;20051;-79
2022/02/20 01:48:43;;;;;;;2.80;0.70;;;;;;;;;;5070943;28;20041;-77
2022/02/20 01:51:09;;;;;;;5.95;1.00;;;;;;;;;;5060039;28;20060;-78
2022/02/20 01:53:34;;;;;;;7.75;0.80;;;;;;;;;;5075161;28;20024;-77
2022/02/20 01:56:02;;;;;;;5.88;0.88;;;;;;;;;;5073437;28;20024;-75
2022/02/20 01:58:30;;;;;;;4.13;1.05;;;;;;;;;;5073466;28;20508;-77
2022/02/20 02:00:55;;;;;;;7.75;1.13;;;;;;;;;;5075088;28;20031;-79
2022/02/20 02:03:23;;;;;;;5.35;0.75;;;;;;;;;;5057354;28;20020;-78
2022/02/20 02:05:49;;;;;;;2.45;0.70;;;;;;;;;;5062398;28;20824;-78
2022/02/20 02:08:18;;;;;;;3.65;1.00;;;;;;;;;;5068783;28;20082;-79
2022/02/20 02:10:45;;;;;;;8.13;1.00;;;;;;;;;;5073847;28;20028;-78
2022/02/20 02:13:11;;;;;;;5.43;0.95;;;;;;;;;;5056221;28;20116;-78
2022/02/20 02:15:54;;;;;;;4.47;0.75;;;;;;;;;;5072712;28;20099;-79
2022/02/20 02:18:22;;;;;;;2.83;0.73;;;;;;;;;;5068432;28;20353;-78
2022/02/20 02:20:48;;;;;;;4.32;0.73;;;;;;;;;;5055664;28;20026;-79
2022/02/20 02:23:18;;;;;;;1.83;0.50;;;;;;;;;;5074713;28;20056;-80
2022/02/20 02:25:47;;;;;;;3.88;0.80;;;;;;;;;;5078022;28;20024;-79
2022/02/20 02:28:12;;;;;;;4.25;0.88;;;;;;;;;;5057318;28;20031;-77
2022/02/20 02:30:40;;;;;;;4.13;1.25;;;;;;;;;;5073896;28;20032;-78
2022/02/20 02:33:06;;;;;;;3.60;0.93;;;;;;;;;;5053037;28;20025;-80
2022/02/20 02:35:32;;;;;;;1.52;0.50;;;;;;;;;;5076576;28;20035;-79
2022/02/20 02:37:58;;;;;;;3.33;0.82;;;;;;;;;;5078345;28;20489;-79
2022/02/20 02:40:26;;;;;;;5.22;1.23;;;;;;;;;;5074101;28;20036;-79
2022/02/20 02:42:52;;;;;;;7.53;1.52;;;;;;;;;;5056220;28;20115;-78
2022/02/20 02:45:17;;;;;;;8.73;1.42;;;;;;;;;;5063001;28;20063;-79
2022/02/20 02:47:47;;;;;;;5.47;1.23;;;;;;;;;;5077150;28;20021;-78
2022/02/20 02:50:13;;;;;;;0.85;0.50;;;;;;;;;;5072670;28;20035;-79
2022/02/20 02:52:41;;;;;;;0.93;0.60;;;;;;;;;;5055774;28;20040;-78
2022/02/20 02:55:09;;;;;;;2.55;0.77;;;;;;;;;;5073211;28;20048;-79
2022/02/20 02:57:34;;;;;;;4.93;0.80;;;;;;;;;;5073757;28;20024;-77
2022/02/20 03:00:00;;;;;;;2.40;0.47;;;;;;;;;;5075301;28;20046;-79
2022/02/20 03:02:25;;;;;;;2.30;0.77;;;;;;;;;;5075586;28;20016;-78
2022/02/20 03:04:53;;;;;;;4.40;0.80;;;;;;;;;;5074279;28;20012;-79
2022/02/20 03:07:18;;;;;;;3.85;1.13;;;;;;;;;;5076711;28;20111;-80
2022/02/20 03:09:44;;;;;;;3.53;0.90;;;;;;;;;;5075998;28;20083;-79
2022/02/20 03:12:09;;;;;;;6.43;0.90;;;;;;;;;;5077425;28;20043;-80
2022/02/20 03:14:35;;;;;;;4.43;0.68;;;;;;;;;;5056719;28;20028;-80
2022/02/20 03:17:01;;;;;;;9.25;0.82;;;;;;;;;;5071340;28;20104;-79
2022/02/20 03:19:27;;;;;;;3.97;0.77;;;;;;;;;;5080935;28;20028;-78
2022/02/20 03:21:52;;;;;;;2.50;0.55;;;;;;;;;;5055205;28;20034;-78
2022/02/20 03:24:18;;;;;;;1.15;0.50;;;;;;;;;;5059961;28;20044;-78
2022/02/20 03:26:43;;;;;;;3.58;1.27;;;;;;;;;;5059349;28;20039;-80
2022/02/20 03:29:09;;;;;;;3.75;1.02;;;;;;;;;;5063124;28;20119;-80
2022/02/20 03:31:38;;;;;;;3.17;0.90;;;;;;;;;;5063510;28;20024;-79
2022/02/20 03:34:04;;;;;;;2.80;0.75;;;;;;;;;;5067826;28;20071;-78
2022/02/20 03:36:31;;;;;;;2.80;0.82;;;;;;;;;;5074335;28;20028;-78
2022/02/20 03:38:57;;;;;;;2.97;0.68;;;;;;;;;;5080626;28;20131;-79
2022/02/20 03:41:22;;;;;;;1.75;0.80;;;;;;;;;;5077558;28;20118;-78
2022/02/20 03:43:48;;;;;;;4.97;1.35;;;;;;;;;;5073430;28;20066;-77
2022/02/20 03:46:13;;;;;;;6.13;1.35;;;;;;;;;;5073358;28;20032;-77
2022/02/20 03:48:41;;;;;;;3.88;0.90;;;;;;;;;;5071999;28;20024;-78
2022/02/20 03:51:09;;;;;;;2.72;0.90;;;;;;;;;;5073378;28;20135;-76
2022/02/20 03:53:34;;;;;;;2.28;0.70;;;;;;;;;;5053572;28;20028;-77
2022/02/20 03:56:00;;;;;;;2.28;0.88;;;;;;;;;;5071962;28;20107;-77
2022/02/20 03:58:25;;;;;;;1.85;0.50;;;;;;;;;;5071881;28;20025;-77
2022/02/20 04:00:50;;;;;;;2.25;0.60;;;;;;;;;;5072482;28;20021;-78
2022/02/20 04:03:16;;;;;;;4.68;1.00;;;;;;;;;;5073377;28;20120;-77
2022/02/20 04:05:44;;;;;;;10.65;1.25;;;;;;;;;;5053597;28;20492;-77
2022/02/20 04:08:09;;;;;;;4.40;0.80;;;;;;;;;;5070962;28;20060;-77
2022/02/20 04:10:35;;;;;;;1.58;0.63;;;;;;;;;;5072549;28;20032;-77
2022/02/20 04:13:03;;;;;;;3.78;0.85;;;;;;;;;;5072998;28;20077;-77
2022/02/20 04:15:31;;;;;;;2.20;0.60;;;;;;;;;;5053018;28;20078;-77
2022/02/20 04:17:56;;;;;;;3.15;0.75;;;;;;;;;;5071104;28;20028;-78
2022/02/20 04:20:22;;;;;;;8.70;1.00;;;;;;;;;;5068937;28;20039;-79
2022/02/20 04:22:50;;;;;;;1.60;0.70;;;;;;;;;;5070686;28;20040;-77
2022/02/20 04:25:16;;;;;;;2.03;0.80;;;;;;;;;;5069134;28;20016;-79
2022/02/20 04:27:43;;;;;;;4.85;0.65;;;;;;;;;;5069536;28;20534;-79
2022/02/20 04:30:09;;;;;;;2.00;0.68;;;;;;;;;;5073250;28;20033;-79
2022/02/20 04:32:35;;;;;;;4.43;0.70;;;;;;;;;;5069962;28;20086;-79
2022/02/20 04:35:01;;;;;;;2.35;0.60;;;;;;;;;;5070313;28;20028;-79
2022/02/20 04:37:29;;;;;;;4.38;0.85;;;;;;;;;;5071035;28;20503;-79
2022/02/20 04:39:57;;;;;;;3.22;0.77;;;;;;;;;;5070956;28;20024;-80
2022/02/20 04:42:22;;;;;;;2.53;0.70;;;;;;;;;;5070797;28;20020;-80
2022/02/20 04:44:48;;;;;;;2.88;0.55;;;;;;;;;;5052470;28;20739;-80
2022/02/20 04:47:13;;;;;;;1.90;0.70;;;;;;;;;;5087821;28;20035;-78
2022/02/20 04:49:38;;;;;;;3.65;0.73;;;;;;;;;;5052013;28;20025;-78
2022/02/20 04:52:04;;;;;;;2.20;0.60;;;;;;;;;;5051759;28;20028;-78
2022/02/20 04:54:30;;;;;;;5.93;1.00;;;;;;;;;;5070827;28;20060;-79
2022/02/20 04:56:55;;;;;;;2.33;0.60;;;;;;;;;;5068774;28;20034;-79
2022/02/20 04:59:21;;;;;;;1.75;0.60;;;;;;;;;;5070765;28;20070;-78
2022/02/20 05:01:47;;;;;;;4.90;0.90;;;;;;;;;;5069994;28;20042;-78
2022/02/20 05:04:12;;;;;;;2.78;0.60;;;;;;;;;;5070576;28;20024;-78
2022/02/20 05:06:38;;;;;;;2.63;0.60;;;;;;;;;;5059443;28;20397;-78
2022/02/20 05:09:03;;;;;;;4.30;0.70;;;;;;;;;;5076488;28;20107;-78
2022/02/20 05:11:29;;;;;;;1.63;0.77;;;;;;;;;;5053778;28;20120;-78
2022/02/20 05:13:58;;;;;;;4.05;1.15;;;;;;;;;;5054216;28;20032;-77
2022/02/20 05:16:24;;;;;;;1.52;0.45;;;;;;;;;;5071470;28;20021;-78
2022/02/20 05:18:50;;;;;;;3.28;0.80;;;;;;;;;;5070613;28;20031;-78
2022/02/20 05:21:15;;;;;;;1.70;0.55;;;;;;;;;;5075227;28;20028;-77
2022/02/20 05:23:41;;;;;;;3.65;0.50;;;;;;;;;;5055224;28;20119;-78
2022/02/20 05:26:06;;;;;;;3.97;0.80;;;;;;;;;;5073781;28;20055;-78
2022/02/20 05:28:32;;;;;;;2.92;0.70;;;;;;;;;;5058253;28;20032;-79
2022/02/20 05:31:00;;;;;;;2.88;1.00;;;;;;;;;;5061523;28;20024;-78
2022/02/20 05:33:26;;;;;;;3.60;0.68;;;;;;;;;;5073284;28;20081;-78
2022/02/20 05:35:51;;;;;;;7.10;1.20;;;;;;;;;;5054611;28;20020;-79
2022/02/20 05:38:19;;;;;;;2.90;0.75;;;;;;;;;;5054919;28;20400;-78
2022/02/20 05:40:47;;;;;;;2.25;0.82;;;;;;;;;;5060704;28;21582;-78
2022/02/20 05:43:12;;;;;;;2.10;0.73;;;;;;;;;;5060808;28;20028;-77
2022/02/20 05:45:41;;;;;;;2.22;1.20;;;;;;;;;;5073788;28;20139;-79
2022/02/20 05:48:06;;;;;;;2.72;0.75;;;;;;;;;;5055208;28;20028;-78
2022/02/20 05:50:32;;;;;;;2.65;0.88;;;;;;;;;;5072602;28;20430;-78
2022/02/20 05:53:00;;;;;;;2.28;0.85;;;;;;;;;;5071733;28;20032;-78
2022/02/20 05:55:26;;;;;;;2.70;0.60;;;;;;;;;;5055042;28;20120;-78
2022/02/20 05:57:53;;;;;;;5.60;0.90;;;;;;;;;;5055174;28;20511;-80
2022/02/20 06:00:23;;;;;;;3.88;0.90;;;;;;;;;;5071614;28;20099;-80
2022/02/20 06:02:49;;;;;;;2.97;0.82;;;;;;;;;;5054924;28;20089;-79
2022/02/20 06:05:14;;;;;;;0.60;0.45;;;;;;;;;;5055199;28;20024;-79
2022/02/20 06:07:40;;;;;;;2.13;0.80;;;;;;;;;;5072548;28;20123;-79
2022/02/20 06:10:07;;;;;;;4.45;0.63;;;;;;;;;;5058661;28;20482;-78
2022/02/20 06:12:33;;;;;;;5.95;0.85;;;;;;;;;;5055781;28;20017;-78
2022/02/20 06:14:58;;;;;;;1.73;0.80;;;;;;;;;;5056625;28;20043;-78
2022/02/20 06:17:24;;;;;;;2.67;0.50;;;;;;;;;;5067353;28;20100;-79
2022/02/20 06:19:50;;;;;;;3.38;0.70;;;;;;;;;;5066289;28;20095;-78
2022/02/20 06:22:19;;;;;;;1.73;0.80;;;;;;;;;;5078022;28;20036;-79
2022/02/20 06:24:44;;;;;;;2.50;0.60;;;;;;;;;;5075837;28;20020;-79
2022/02/20 06:27:10;;;;;;;2.33;0.57;;;;;;;;;;5076834;28;20032;-79
2022/02/20 06:29:35;;;;;;;4.43;0.50;;;;;;;;;;5056441;28;20115;-77
2022/02/20 06:32:01;;;;;;;1.05;0.50;;;;;;;;;;5058083;28;20107;-78
2022/02/20 06:34:29;;;;;;;1.20;0.60;;;;;;;;;;5068575;28;20027;-79
2022/02/20 06:36:59;;;;;;;1.27;0.80;;;;;;;;;;5079419;28;20020;-80
2022/02/20 06:39:25;;;;;;;2.65;0.77;;;;;;;;;;5059237;28;20028;-78
2022/02/20 06:41:50;;;;;;;2.08;0.85;;;;;;;;;;5062652;28;20513;-80
2022/02/20 06:44:16;;;;;;;2.10;0.55;;;;;;;;;;5080774;28;20029;-80
2022/02/20 06:46:44;;;;;;;2.38;0.50;;;;;;;;;;5063303;28;20091;-81
2022/02/20 06:49:12;;;;;;;2.15;0.95;;;;;;;;;;5062343;28;20158;-81
2022/02/20 06:51:40;;;;;;;1.77;0.65;;;;;;;;;;5081384;28;20025;-80
2022/02/20 06:54:05;;;;;;;1.70;1.25;;;;;;;;;;5079103;28;20020;-79
2022/02/20 06:56:31;;;;;;;5.50;0.57;;;;;;;;;;5074293;28;20095;-80
2022/02/20 06:58:58;;;;;;;1.35;0.68;;;;;;;;;;5069346;28;20025;-78
2022/02/20 07:01:23;;;;;;;2.25;0.77;;;;;;;;;;5078273;28;20040;-77
2022/02/20 07:03:49;;;;;;;1.65;0.98;;;;;;;;;;5059194;28;20046;-77
2022/02/20 07:06:14;;;;;;;1.60;1.00;;;;;;;;;;5054853;28;20025;-78
2022/02/20 07:08:42;;;;;;;1.33;0.68;;;;;;;;;;5055182;28;20032;-77
2022/02/20 07:11:08;;;;;;;2.28;1.17;;;;;;;;;;5072676;28;20020;-78
2022/02/20 07:13:34;;;;;;;2.13;0.70;;;;;;;;;;5072241;28;20074;-77
2022/02/20 07:15:59;;;;;;;2.55;0.60;;;;;;;;;;5069524;28;20025;-76
2022/02/20 07:18:25;;;;;;;6.22;1.00;;;;;;;;;;5050747;28;20033;-76
2022/02/20 07:20:50;;;;;;;1.63;0.75;;;;;;;;;;5071982;28;20028;-77
2022/02/20 07:23:15;;;;;;;2.03;0.60;;;;;;;;;;5062983;28;20085;-77
2022/02/20 07:25:42;;;;;;;4.55;1.10;;;;;;;;;;5057224;28;20034;-78
2022/02/20 07:28:07;;;;;;;1.20;0.60;;;;;;;;;;5052401;28;20476;-77
2022/02/20 07:30:36;;;;;;;1.73;0.50;;;;;;;;;;5068948;28;20058;-76
2022/02/20 07:33:05;;;;;;;1.05;0.70;;;;;;;;;;5067632;28;20020;-76
2022/02/20 07:35:31;;;;;;;5.13;1.02;;;;;;;;;;5055847;28;20492;-75
2022/02/20 07:37:59;;;;;;;7.68;2.60;;;;;;;;;;5071093;28;20059;-75
2022/02/20 07:40:25;;;;;;;4.32;1.63;;;;;;;;;;5070190;28;20534;-76
2022/02/20 07:42:53;;;;;;;5.88;2.85;;;;;;;;;;5058390;28;20028;-77
2022/02/20 07:45:23;;;;;;;2.72;0.77;;;;;;;;;;5075918;28;20047;-77
2022/02/20 07:48:00;;;;;;;2.25;1.02;;;;;;;;;;5070452;28;20458;-76
2022/02/20 07:50:30;;;;;;;17.23;5.82;;;;;;;;;;5048861;28;20032;-76
2022/02/20 07:52:59;;;;;;;5.03;1.67;;;;;;;;;;5066268;28;20017;-76
2022/02/20 07:55:27;;;;;;;1.75;1.00;;;;;;;;;;5068250;28;20028;-75
2022/02/20 07:57:53;;;;;;;2.00;0.90;;;;;;;;;;5070993;28;20382;-75
2022/02/20 08:00:22;;;;;;;3.17;1.38;;;;;;;;;;5070770;28;20036;-76
2022/02/20 08:02:50;;;;;;;1.50;0.90;;;;;;;;;;5068981;28;20523;-75
2022/02/20 08:05:16;;;;;;;2.75;1.10;;;;;;;;;;5071244;28;20111;-77
2022/02/20 08:07:41;;;;;;;7.90;3.38;;;;;;;;;;5069904;28;20111;-76
2022/02/20 08:10:07;;;;;;;4.90;1.40;;;;;;;;;;5068749;28;20132;-77
2022/02/20 08:12:32;;;;;;;3.22;1.30;;;;;;;;;;5064693;28;20027;-76
2022/02/20 08:14:58;;;;;;;8.45;3.65;;;;;;;;;;5051781;28;20354;-76
2022/02/20 08:17:24;;;;;;;3.45;1.38;;;;;;;;;;5078993;28;20533;-76
2022/02/20 08:19:50;;;;;;;4.07;1.30;;;;;;;;;;5051000;28;20024;-76
2022/02/20 08:22:16;;;;;;;2.13;0.95;;;;;;;;;;5070176;28;20480;-77
2022/02/20 08:24:43;;;;;;;1.90;1.02;;;;;;;;;;5051590;28;20024;-76
2022/02/20 08:27:09;;;;;;;3.45;1.05;;;;;;;;;;5070652;28;20561;-75
2022/02/20 08:29:38;;;;;;;1.05;0.60;;;;;;;;;;5072118;28;20107;-76
2022/02/20 08:32:04;;;;;;;1.33;0.70;;;;;;;;;;5077330;28;20043;-76
2022/02/20 08:34:30;;;;;;;0.93;0.80;;;;;;;;;;5059426;28;20029;-76
2022/02/20 08:36:55;;;;;;;2.47;0.65;;;;;;;;;;5067269;28;20021;-75
2022/02/20 08:39:22;;;;;;;2.30;0.80;;;;;;;;;;5060592;28;20055;-76
2022/02/20 08:41:48;;;;;;;2.10;0.60;;;;;;;;;;5079893;28;20039;-76
2022/02/20 08:44:13;;;;;;;1.15;0.50;;;;;;;;;;5075461;28;20032;-76
2022/02/20 08:46:39;;;;;;;2.05;0.60;;;;;;;;;;5052108;28;20036;-76
2022/02/20 08:49:04;;;;;;;2.67;1.00;;;;;;;;;;5069644;28;20500;-76
2022/02/20 08:51:31;;;;;;;5.50;1.17;;;;;;;;;;5053147;28;20487;-76
2022/02/20 08:53:58;;;;;;;0.55;0.40;;;;;;;;;;5066014;28;20109;-77
2022/02/20 08:56:26;;;;;;;1.90;0.80;;;;;;;;;;5072784;28;20384;-75
2022/02/20 08:58:57;;;;;;;3.65;0.80;;;;;;;;;;5054662;28;20024;-77
2022/02/20 09:01:24;;;;;;;2.78;0.90;;;;;;;;;;5055036;28;20056;-76
2022/02/20 09:03:50;;;;;;;1.63;0.73;;;;;;;;;;5073049;28;20504;-76
2022/02/20 09:06:15;;;;;;;2.70;0.60;;;;;;;;;;5075044;28;20105;-77
2022/02/20 09:08:46;;;;;;;3.42;1.10;;;;;;;;;;5054465;28;20520;-77
2022/02/20 09:11:11;;;;;;;5.40;2.05;;;;;;;;;;5068463;28;20095;-76
2022/02/20 09:13:37;;;;;;;7.97;4.15;;;;;;;;;;5053340;28;20120;-76
2022/02/20 09:16:02;;;;;;;1.48;0.52;;;;;;;;;;5072278;28;20031;-75
2022/02/20 09:18:28;;;;;;;3.60;1.38;;;;;;;;;;5073314;28;20105;-78
2022/02/20 09:20:53;;;;;;;3.70;1.75;;;;;;;;;;5070403;28;20024;-76
2022/02/20 09:23:18;;;;;;;11.90;5.50;;;;;;;;;;5071061;28;20024;-76
2022/02/20 09:25:44;;;;;;;3.67;1.20;;;;;;;;;;5076302;28;20034;-77
2022/02/20 09:28:10;;;;;;;2.63;0.90;;;;;;;;;;5072959;28;20119;-76
2022/02/20 09:30:35;;;;;;;1.02;0.60;;;;;;;;;;5071403;28;20123;-77
2022/02/20 09:33:03;;;;;;;1.65;0.60;;;;;;;;;;5074465;28;20126;-76
2022/02/20 09:35:33;;;;;;;8.77;3.53;;;;;;;;;;5079189;28;20026;-76
2022/02/20 09:37:58;;;;;;;3.30;1.85;;;;;;;;;;5071119;28;20047;-77
2022/02/20 09:40:24;;;;;;;1.55;0.50;;;;;;;;;;5057339;28;20488;-75
2022/02/20 09:42:51;;;;;;;1.48;0.90;;;;;;;;;;5054019;28;20029;-76
2022/02/20 09:45:16;;;;;;;1.60;0.90;;;;;;;;;;5071328;28;20051;-76
2022/02/20 09:47:44;;;;;;;2.53;0.80;;;;;;;;;;5070804;28;20052;-76
2022/02/20 09:50:10;;;;;;;1.95;0.90;;;;;;;;;;5070308;28;20031;-76
2022/02/20 09:52:38;;;;;;;1.85;1.05;;;;;;;;;;5070713;28;20115;-76
2022/02/20 09:55:09;;;;;;;3.65;1.85;;;;;;;;;;5065631;28;20040;-76
2022/02/20 09:57:35;;;;;;;1.75;0.88;;;;;;;;;;5068406;28;20024;-76
2022/02/20 10:00:01;;;;;;;1.10;0.60;;;;;;;;;;5071951;28;20111;-76
2022/02/20 10:02:36;;;;;;;1.02;0.75;;;;;;;;;;5073511;28;20029;-75
2022/02/20 10:05:04;;;;;;;5.47;1.67;;;;;;;;;;5051427;28;20025;-77
2022/02/20 10:07:35;;;;;;;2.10;1.20;;;;;;;;;;5070431;28;20606;-75
2022/02/20 10:10:05;;;;;;;1.65;0.90;;;;;;;;;;5070932;28;20396;-76
2022/02/20 10:12:31;;;;;;;0.95;0.68;;;;;;;;;;5068970;28;20133;-77
2022/02/20 10:14:57;;;;;;;1.10;0.40;;;;;;;;;;5053023;28;20028;-76
2022/02/20 10:17:26;;;;;;;1.55;1.10;;;;;;;;;;5070835;28;20097;-77
2022/02/20 10:20:04;;;;;;;1.15;0.70;;;;;;;;;;5071639;28;20031;-76
2022/02/20 10:22:42;;;;;;;0.57;0.50;;;;;;;;;;5061326;28;20405;-76
2022/02/20 10:25:09;;;;;;;3.65;0.70;;;;;;;;;;5071674;28;20031;-75
2022/02/20 10:27:37;;;;;;;1.65;0.82;;;;;;;;;;5054071;28;20047;-77
2022/02/20 10:30:15;;;;;;;2.05;1.00;;;;;;;;;;5071705;28;20050;-76
2022/02/20 10:32:44;;;;;;;4.57;1.38;;;;;;;;;;5070672;28;20487;-76
2022/02/20 10:35:15;;;;;;;2.75;1.05;;;;;;;;;;5050790;28;20029;-77
2022/02/20 10:37:41;;;;;;;2.70;0.90;;;;;;;;;;5070380;28;20036;-77
2022/02/20 10:40:25;;;;;;;3.28;1.30;;;;;;;;;;5054991;28;20580;-77
2022/02/20 10:42:54;;;;;;;1.25;0.60;;;;;;;;;;5074457;28;20020;-76
2022/02/20 10:45:25;;;;;;;2.07;1.00;;;;;;;;;;5057394;28;20024;-77
2022/02/20 10:47:51;;;;;;;1.90;0.90;;;;;;;;;;5052108;28;20484;-76
2022/02/20 10:50:24;;;;;;;2.22;1.00;;;;;;;;;;5070517;28;20036;-76
2022/02/20 10:53:08;;;;;;;1.83;0.93;;;;;;;;;;5071804;28;20024;-77
2022/02/20 10:55:42;;;;;;;1.15;0.50;;;;;;;;;;5072255;28;20029;-77
2022/02/20 10:58:09;;;;;;;1.73;1.00;;;;;;;;;;5065495;28;20024;-76
2022/02/20 11:00:35;;;;;;;2.33;0.90;;;;;;;;;;5067119;28;20452;-77
2022/02/20 11:03:07;;;;;;;1.05;0.60;;;;;;;;;;5070244;28;20071;-77
2022/02/20 11:05:37;;;;;;;2.42;1.13;;;;;;;;;;5069135;28;20178;-76
2022/02/20 11:08:05;;;;;;;4.50;1.65;;;;;;;;;;5065207;28;20135;-77
2022/02/20 11:10:31;;;;;;;1.35;0.90;;;;;;;;;;5065657;28;20490;-76
2022/02/20 11:12:58;;;;;;;2.20;0.75;;;;;;;;;;5070928;28;20473;-76
2022/02/20 11:15:24;;;;;;;3.33;0.60;;;;;;;;;;5062588;28;20024;-77
2022/02/20 11:17:51;;;;;;;0.93;0.73;;;;;;;;;;5067429;28;20408;-77
2022/02/20 11:20:17;;;;;;;1.02;0.60;;;;;;;;;;5047468;28;20409;-77
2022/02/20 11:22:48;;;;;;;2.55;1.20;;;;;;;;;;5069695;28;20035;-77
2022/02/20 11:25:14;;;;;;;3.88;0.60;;;;;;;;;;5051839;28;20024;-76
2022/02/20 11:27:43;;;;;;;1.15;0.60;;;;;;;;;;5070107;28;20036;-77
2022/02/20 11:30:10;;;;;;;1.45;0.98;;;;;;;;;;5070616;28;20028;-77
2022/02/20 11:32:41;;;;;;;2.28;1.27;;;;;;;;;;5053658;28;20081;-77
2022/02/20 11:35:15;;;;;;;2.70;0.50;;;;;;;;;;5070439;28;20035;-75
2022/02/20 11:37:54;;;;;;;0.52;0.40;;;;;;;;;;5069896;28;20059;-77
2022/02/20 11:40:21;;;;;;;2.55;0.38;;;;;;;;;;5069682;28;20111;-77
2022/02/20 11:42:58;;;;;;;0.70;0.40;;;;;;;;;;5069666;28;20031;-77
2022/02/20 11:45:25;;;;;;;0.68;0.50;;;;;;;;;;5073262;28;20022;-77
2022/02/20 11:48:06;;;;;;;0.28;0.28;;;;;;;;;;5051085;28;20078;-76
2022/02/20 11:50:33;;;;;;;1.35;0.60;;;;;;;;;;5069193;28;20107;-77
2022/02/20 11:53:07;;;;;;;3.88;1.15;;;;;;;;;;5047369;28;20028;-76
2022/02/20 11:55:45;;;;;;;0.95;0.40;;;;;;;;;;5064821;28;20112;-77
2022/02/20 11:58:10;;;;;;;0.73;0.40;;;;;;;;;;5065859;28;20085;-76
2022/02/20 12:00:59;;;;;;;1.50;0.73;;;;;;;;;;5065768;28;20036;-76
2022/02/20 12:03:52;;;;;;;2.20;0.67;;;;;;;;;;5040785;28;20043;-76
2022/02/20 12:06:18;;;;;;;1.85;0.93;;;;;;;;;;5048721;28;20021;-76
2022/02/20 12:08:58;;;;;;;4.70;1.33;;;;;;;;;;5068584;28;20077;-76
2022/02/20 12:11:43;;;;;;;2.30;1.30;;;;;;;;;;5067226;28;20024;-76
2022/02/20 12:14:22;;;;;;;3.25;1.23;;;;;;;;;;5070494;28;20128;-76
2022/02/20 12:16:57;;;;;;;1.67;0.90;;;;;;;;;;5050171;28;20218;-78
2022/02/20 12:19:34;;;;;;;0.70;0.70;;;;;;;;;;5050998;28;20055;-77
2022/02/20 12:22:09;;;;;;;2.63;0.80;;;;;;;;;;5049075;28;20028;-77
2022/02/20 12:24:50;;;;;;;1.05;0.70;;;;;;;;;;5068657;28;20479;-76
2022/02/20 12:27:22;;;;;;;2.17;1.67;;;;;;;;;;5067393;28;20032;-76
2022/02/20 12:29:54;;;;;;;0.93;0.43;;;;;;;;;;5071239;28;20032;-77
2022/02/20 12:32:27;;;;;;;1.10;0.80;;;;;;;;;;5070276;28;20017;-78
2022/02/20 12:35:03;;;;;;;2.50;1.40;;;;;;;;;;5058930;28;20029;-77
2022/02/20 12:37:34;;;;;;;0.77;0.60;;;;;;;;;;5052984;28;20031;-76
2022/02/20 12:40:16;;;;;;;1.77;0.80;;;;;;;;;;5070319;28;20504;-76
2022/02/20 12:42:55;;;;;;;0.93;0.80;;;;;;;;;;5068586;28;20504;-76
2022/02/20 12:45:28;;;;;;;1.30;0.50;;;;;;;;;;5069495;28;20031;-75
2022/02/20 12:47:56;;;;;;;1.30;0.50;;;;;;;;;;5073831;28;20102;-76
2022/02/20 12:50:27;;;;;;;1.02;0.77;;;;;;;;;;5071951;28;20028;-76
2022/02/20 12:52:54;;;;;;;2.55;0.80;;;;;;;;;;5072329;28;20404;-75
2022/02/20 12:55:21;;;;;;;1.75;0.90;;;;;;;;;;5073786;28;20028;-75
2022/02/20 12:57:48;;;;;;;2.08;0.90;;;;;;;;;;5072384;28;20469;-75
2022/02/20 13:03:02;;;;;;;1.88;0.93;;;;;;;;;;5058860;28;20392;-75
2022/02/20 13:05:29;;;;;;;1.27;0.90;;;;;;;;;;5073011;28;20035;-75
2022/02/20 13:08:09;;;;;;;1.40;0.60;;;;;;;;;;5068528;28;20443;-74
2022/02/20 13:10:36;;;;;;;2.88;0.80;;;;;;;;;;5069555;28;20100;-75
2022/02/20 13:13:19;;;;;;;0.68;0.60;;;;;;;;;;5069198;28;20024;-74
2022/02/20 13:15:49;;;;;;;2.15;0.65;;;;;;;;;;5069875;28;20039;-75
2022/02/20 13:18:21;;;;;;;5.80;2.08;;;;;;;;;;5070249;28;20042;-74
2022/02/20 13:21:15;;;;;;;2.83;0.77;;;;;;;;;;5069918;28;20032;-74
2022/02/20 13:23:47;;;;;;;4.75;2.95;;;;;;;;;;5065737;28;20055;-76
2022/02/20 13:26:15;;;;;;;2.55;1.00;;;;;;;;;;5074004;28;20461;-75
2022/02/20 13:28:46;;;;;;;1.88;0.82;;;;;;;;;;5070896;28;20042;-75
2022/02/20 13:31:22;;;;;;;1.50;0.80;;;;;;;;;;5071323;28;20040;-75
2022/02/20 13:33:50;;;;;;;0.80;0.70;;;;;;;;;;5051933;28;20039;-75
2022/02/20 13:36:18;;;;;;;3.08;1.25;;;;;;;;;;5070244;28;20036;-75
2022/02/20 13:38:46;;;;;;;1.33;0.80;;;;;;;;;;5068941;28;20413;-74
2022/02/20 13:41:24;;;;;;;1.60;0.63;;;;;;;;;;5060243;28;20036;-75
2022/02/20 13:43:53;;;;;;;1.00;0.30;;;;;;;;;;5052274;28;20029;-74
2022/02/20 13:46:39;;;;;;;1.55;0.50;;;;;;;;;;5068740;28;20555;-74
2022/02/20 13:49:09;;;;;;;6.88;2.03;;;;;;;;;;5071727;28;20029;-74
2022/02/20 13:51:42;;;;;;;1.38;0.82;;;;;;;;;;5068612;28;20051;-75
2022/02/20 13:54:17;;;;;;;1.30;0.43;;;;;;;;;;5069811;28;20377;-74
2022/02/20 13:56:55;;;;;;;2.97;0.63;;;;;;;;;;5049338;28;20075;-74
2022/02/20 13:59:23;;;;;;;1.73;1.10;;;;;;;;;;5065495;28;20554;-73
2022/02/20 14:01:50;;;;;;;1.55;0.70;;;;;;;;;;5068916;28;20032;-76
2022/02/20 14:04:48;;;;;;;1.15;0.80;;;;;;;;;;5054712;28;20028;-74
2022/02/20 14:07:27;;;;;;;1.65;0.95;;;;;;;;;;5050416;28;20028;-75
2022/02/20 14:09:57;;;;;;;2.30;0.80;;;;;;;;;;5069800;28;20020;-75
2022/02/20 14:12:29;;;;;;;1.65;0.80;;;;;;;;;;5069046;28;20477;-74
2022/02/20 14:15:35;;;;;;;2.22;1.38;;;;;;;;;;5065762;28;20119;-75
2022/02/20 14:18:11;;;;;;;3.78;1.05;;;;;;;;;;5047565;28;20480;-74
2022/02/20 14:20:43;;;;;;;3.97;1.05;;;;;;;;;;5069192;28;20442;-74
2022/02/20 14:23:12;;;;;;;1.38;0.88;;;;;;;;;;5069709;28;20103;-74
2022/02/20 14:25:38;;;;;;;0.60;0.45;;;;;;;;;;5048765;28;20028;-74
2022/02/20 14:28:05;;;;;;;2.10;0.80;;;;;;;;;;5067458;28;20032;-75
2022/02/20 14:30:39;;;;;;;1.20;0.60;;;;;;;;;;5049205;28;21558;-75
2022/02/20 14:33:18;;;;;;;0.90;0.70;;;;;;;;;;5067778;28;20660;-75
2022/02/20 14:35:49;;;;;;;3.15;0.90;;;;;;;;;;5068859;28;20020;-75
2022/02/20 14:38:17;;;;;;;0.88;0.50;;;;;;;;;;5067672;28;20025;-75
2022/02/20 14:40:44;;;;;;;1.30;0.30;;;;;;;;;;5067004;28;20511;-75
2022/02/20 14:43:10;;;;;;;1.10;0.55;;;;;;;;;;5068561;28;20028;-74
2022/02/20 14:45:38;;;;;;;1.67;1.23;;;;;;;;;;5050968;28;20024;-74
2022/02/20 14:48:04;;;;;;;2.17;1.27;;;;;;;;;;5071996;28;20017;-74
2022/02/20 14:50:39;;;;;;;1.17;0.98;;;;;;;;;;5054401;28;20378;-74
2022/02/20 14:53:06;;;;;;;1.85;0.90;;;;;;;;;;5068948;28;20037;-73